Mobile Site You Are Here >  >  >  > Caleb Gindl 2014 Minor League Gamelogs & Splits


Photo of Caleb Gindl


Caleb Gindl

Caleb Charles Gindl

Position: Outfielder
Bats: Left, Throws: Left
Height: 5' 9", Weight: 210 lb.

Born: August 31, 1988 in Pensacola, Florida, US
High School: Pace HS (Pace, FL)

Drafted by the Milwaukee Brewers in the 5th round of the 2007 MLB June Amateur Draft from Pace HS (Pace, FL).

Major League Stats

Caleb Gindl
/ Gamelogs & Splits
 Batting: 2014 / 2013 / 2012 / 2011 / 2010 / 2009 / 2008

2014 Player Batting Gamelog

Rk Date Lev Tm   Opp PA AB R H 2B 3B HR RBI BB IBB SO HBP SH SF GDP SB CS Pos E
1 2014-04-04 AAA-PCL Nashville Sounds @ Omaha Storm Chasers 4 4 1 1 0 0 0 0 0 0 1 0 0 0 0 0 0 RF 0
2 2014-04-05 AAA-PCL Nashville Sounds @ Omaha Storm Chasers 3 3 0 1 0 0 0 1 0 0 1 0 0 0 0 0 0 RF 0
3 2014-04-06 AAA-PCL Nashville Sounds @ Omaha Storm Chasers 4 4 0 0 0 0 0 0 0 0 2 0 0 0 0 0 0 RF 0
4 2014-04-07 AAA-PCL Nashville Sounds @ Iowa Cubs 3 3 0 0 0 0 0 0 0 0 2 0 0 0 0 0 0 RF 0
5 2014-04-09 AAA-PCL Nashville Sounds @ Iowa Cubs 4 4 0 0 0 0 0 0 0 0 2 0 0 0 0 0 0 LF 0
6 2014-04-10 AAA-PCL Nashville Sounds @ Iowa Cubs 4 4 0 1 0 0 0 0 0 0 1 0 0 0 0 0 0 RF 0
7 2014-04-11 AAA-PCL Nashville Sounds Omaha Storm Chasers 5 3 2 2 0 0 1 1 2 0 0 0 0 0 0 0 0 LF 1
8 2014-04-12 AAA-PCL Nashville Sounds Omaha Storm Chasers 4 4 0 0 0 0 0 1 0 0 0 0 0 0 0 0 0 LF 0
9 2014-04-13 AAA-PCL Nashville Sounds Omaha Storm Chasers 4 4 1 1 0 0 0 0 0 0 0 0 0 0 0 0 0 LF 0
10 2014-04-15 AAA-PCL Nashville Sounds Memphis Redbirds 5 4 0 1 1 0 0 0 1 0 2 0 0 0 0 0 0 RF 0
11 2014-04-16 AAA-PCL Nashville Sounds Memphis Redbirds 4 3 0 1 1 0 0 0 1 0 0 0 0 0 0 0 0 RF 0
12 2014-04-17 AAA-PCL Nashville Sounds Memphis Redbirds 5 4 0 1 0 0 0 1 1 0 2 0 0 0 0 0 0 CF 0
13 2014-04-18 AAA-PCL Nashville Sounds Memphis Redbirds 4 3 0 0 0 0 0 0 1 0 1 0 0 0 0 0 0 CF,RF 0
14 2014-04-19 AAA-PCL Nashville Sounds @ Omaha Storm Chasers 5 4 0 1 1 0 0 0 1 1 1 0 0 0 0 0 0 RF 0
15 2014-04-20 AAA-PCL Nashville Sounds @ Omaha Storm Chasers 4 4 2 2 0 0 0 0 0 0 0 0 0 0 0 0 0 RF 0
16 2014-04-21 AAA-PCL Nashville Sounds @ Omaha Storm Chasers 5 4 2 1 0 0 0 1 1 0 2 0 0 0 0 0 0 CF 0
17 2014-04-22 AAA-PCL Nashville Sounds @ Omaha Storm Chasers 4 4 0 0 0 0 0 0 0 0 3 0 0 0 0 0 0 CF 0
18 2014-04-24 AAA-PCL Nashville Sounds @ Oklahoma City RedHawks 4 3 0 1 0 0 0 0 1 0 0 0 0 0 0 0 0 CF 0
19 2014-04-25 AAA-PCL Nashville Sounds @ Oklahoma City RedHawks 4 4 0 3 1 0 0 0 0 0 0 0 0 0 0 0 0 CF 0
20 2014-04-26 AAA-PCL Nashville Sounds @ Oklahoma City RedHawks 5 5 0 1 0 0 0 0 0 0 0 0 0 0 0 0 0 CF 0
21 2014-04-27 AAA-PCL Nashville Sounds @ Oklahoma City RedHawks 5 5 2 2 1 0 1 1 0 0 1 0 0 0 0 0 0 CF 0
22 2014-04-29 AAA-PCL Nashville Sounds New Orleans Zephyrs 5 4 2 2 2 0 0 0 1 0 0 0 0 0 0 0 0 CF 0
23 2014-04-30 AAA-PCL Nashville Sounds New Orleans Zephyrs 3 3 0 2 0 0 0 0 0 0 0 0 0 0 0 0 0 CF 0
24 2014-04-30 (2) AAA-PCL Nashville Sounds New Orleans Zephyrs 3 3 1 1 0 0 0 0 0 0 1 0 0 0 0 0 0 LF 0
25 2014-05-01 AAA-PCL Nashville Sounds New Orleans Zephyrs 5 5 1 2 0 0 0 0 0 0 1 0 0 0 0 0 0 LF,CF 0
Player Moved from AAA-PCL to MLB-NL
26 2014-05-02 MLB-NL Milwaukee Brewers @ Cincinnati Reds 4 3 0 1 0 0 0 0 1 0 1 0 0 0 0 0 0 RF 0
27 2014-05-03 MLB-NL Milwaukee Brewers @ Cincinnati Reds 3 3 0 0 0 0 0 0 0 0 2 0 0 0 0 0 0 RF 0
28 2014-05-04 MLB-NL Milwaukee Brewers @ Cincinnati Reds 3 3 0 0 0 0 0 0 0 0 0 0 0 0 0 0 0 RF 0
29 2014-05-05 MLB-NL Milwaukee Brewers Arizona Diamondbacks 4 4 0 0 0 0 0 0 0 0 1 0 0 0 0 0 0 RF 0
30 2014-05-06 MLB-NL Milwaukee Brewers Arizona Diamondbacks 1 1 0 0 0 0 0 0 0 0 1 0 0 0 0 0 0 0
31 2014-05-07 MLB-NL Milwaukee Brewers Arizona Diamondbacks 3 2 0 1 0 0 0 0 1 0 0 0 0 0 0 0 0 RF 0
32 2014-05-10 MLB-NL Milwaukee Brewers New York Yankees 4 3 0 1 0 0 0 0 1 0 0 0 0 0 0 0 0 RF 0
33 2014-05-11 MLB-NL Milwaukee Brewers New York Yankees 1 0 0 0 0 0 0 0 1 0 0 0 0 0 0 0 0 0
Player Moved from MLB-NL to AAA-PCL
34 2014-05-15 AAA-PCL Nashville Sounds Oklahoma City RedHawks 4 3 0 1 0 0 0 0 1 0 0 0 0 0 0 0 0 LF 0
35 2014-05-16 AAA-PCL Nashville Sounds Oklahoma City RedHawks 4 4 0 1 0 0 0 0 0 0 1 0 0 0 0 0 0 CF,LF 0
36 2014-05-17 AAA-PCL Nashville Sounds Oklahoma City RedHawks 5 3 2 1 0 0 0 1 2 0 0 0 0 0 0 0 0 CF 0
37 2014-05-18 AAA-PCL Nashville Sounds Oklahoma City RedHawks 4 3 0 0 0 0 0 0 1 1 0 0 0 0 0 0 0 LF 0
38 2014-05-19 AAA-PCL Nashville Sounds Omaha Storm Chasers 4 3 1 0 0 0 0 0 1 0 2 0 0 0 0 0 0 RF 0
39 2014-05-20 AAA-PCL Nashville Sounds Omaha Storm Chasers 4 4 0 0 0 0 0 0 0 0 2 0 0 0 0 0 0 CF,RF 0
40 2014-05-21 AAA-PCL Nashville Sounds Omaha Storm Chasers 3 3 0 1 1 0 0 0 0 0 0 0 0 0 0 0 0 LF 0
41 2014-05-22 AAA-PCL Nashville Sounds Omaha Storm Chasers 4 4 1 2 0 0 1 1 0 0 2 0 0 0 0 0 0 RF 0
42 2014-05-23 AAA-PCL Nashville Sounds @ New Orleans Zephyrs 4 4 0 0 0 0 0 0 0 0 0 0 0 0 0 0 0 LF 0
43 2014-05-25 AAA-PCL Nashville Sounds @ New Orleans Zephyrs 5 3 1 2 0 0 1 2 2 0 1 0 0 0 0 1 0 RF 0
44 2014-05-26 AAA-PCL Nashville Sounds @ New Orleans Zephyrs 4 4 0 0 0 0 0 0 0 0 1 0 0 0 0 0 0 RF 0
45 2014-05-27 AAA-PCL Nashville Sounds Colorado Springs Sky Sox 4 4 0 0 0 0 0 0 0 0 0 0 0 0 0 0 0 CF,RF 0
46 2014-05-28 AAA-PCL Nashville Sounds Colorado Springs Sky Sox 4 4 2 2 0 0 0 0 0 0 0 0 0 0 0 0 0 LF 0
47 2014-05-29 AAA-PCL Nashville Sounds Colorado Springs Sky Sox 3 3 0 1 0 0 0 0 0 0 0 0 0 0 0 0 0 CF 0
48 2014-05-30 AAA-PCL Nashville Sounds Colorado Springs Sky Sox 4 4 0 2 2 0 0 2 0 0 2 0 0 0 0 0 0 CF,LF 0
49 2014-05-31 AAA-PCL Nashville Sounds Iowa Cubs 3 3 0 1 0 0 0 0 0 0 0 0 0 0 0 0 1 CF 0
50 2014-06-01 AAA-PCL Nashville Sounds Iowa Cubs 4 4 0 0 0 0 0 0 0 0 0 0 0 0 0 0 0 CF 0
51 2014-06-02 AAA-PCL Nashville Sounds Iowa Cubs 4 4 1 1 0 0 1 1 0 0 1 0 0 0 0 0 0 LF 0
52 2014-06-05 AAA-PCL Nashville Sounds @ Memphis Redbirds 4 4 0 0 0 0 0 0 0 0 0 0 0 0 0 0 0 LF 0
53 2014-06-06 AAA-PCL Nashville Sounds @ Memphis Redbirds 4 4 0 1 0 0 0 0 0 0 1 0 0 0 0 0 0 CF,LF 0
54 2014-06-07 AAA-PCL Nashville Sounds @ Memphis Redbirds 4 4 1 1 1 0 0 0 0 0 0 0 0 0 1 0 0 LF,CF 0
55 2014-06-08 AAA-PCL Nashville Sounds @ Memphis Redbirds 3 3 0 1 0 0 0 0 0 0 1 0 0 0 0 0 0 LF 0
56 2014-06-09 AAA-PCL Nashville Sounds Reno Aces 4 4 0 0 0 0 0 0 0 0 1 0 0 0 0 0 0 CF,LF 0
57 2014-06-11 AAA-PCL Nashville Sounds Reno Aces 4 3 0 0 0 0 0 0 1 0 1 0 0 0 0 0 0 LF 0
58 2014-06-12 AAA-PCL Nashville Sounds Reno Aces 5 5 2 3 1 0 0 1 0 0 1 0 0 0 1 0 0 LF 0
59 2014-06-13 AAA-PCL Nashville Sounds Tacoma Rainiers 4 4 0 1 0 0 0 0 0 0 1 0 0 0 0 0 0 RF 0
60 2014-06-14 AAA-PCL Nashville Sounds Tacoma Rainiers 4 2 0 0 0 0 0 0 2 0 0 0 0 0 0 0 0 LF 0
61 2014-06-15 AAA-PCL Nashville Sounds Tacoma Rainiers 4 4 0 2 0 0 0 0 0 0 0 0 0 0 0 0 0 CF 0
62 2014-06-16 AAA-PCL Nashville Sounds Tacoma Rainiers 4 4 0 0 0 0 0 0 0 0 1 0 0 0 0 0 0 RF 0
63 2014-06-17 AAA-PCL Nashville Sounds @ Las Vegas 51s 5 5 1 2 0 0 0 0 0 0 2 0 0 0 0 0 0 RF 0
64 2014-06-18 AAA-PCL Nashville Sounds @ Las Vegas 51s 4 4 0 0 0 0 0 0 0 0 2 0 0 0 0 0 0 LF 0
65 2014-06-20 AAA-PCL Nashville Sounds @ Las Vegas 51s 4 3 0 2 0 0 0 0 1 0 0 0 0 0 0 0 0 LF 0
66 2014-06-21 AAA-PCL Nashville Sounds @ Salt Lake Bees 4 3 0 0 0 0 0 0 1 0 1 0 0 0 0 0 0 LF 0
67 2014-06-22 AAA-PCL Nashville Sounds @ Salt Lake Bees 4 4 1 1 0 0 1 1 0 0 2 0 0 0 0 0 0 LF 0
68 2014-06-23 AAA-PCL Nashville Sounds @ Salt Lake Bees 4 4 1 2 1 0 0 3 0 0 0 0 0 0 0 0 0 LF 0
69 2014-06-24 AAA-PCL Nashville Sounds @ Salt Lake Bees 4 4 0 3 0 1 0 1 0 0 0 0 0 0 0 0 1 RF 0
70 2014-06-26 AAA-PCL Nashville Sounds New Orleans Zephyrs 4 4 0 1 1 0 0 0 0 0 0 0 0 0 0 0 0 CF 0
71 2014-06-27 AAA-PCL Nashville Sounds New Orleans Zephyrs 4 3 0 0 0 0 0 0 1 0 1 0 0 0 0 0 0 LF 0
72 2014-06-28 AAA-PCL Nashville Sounds New Orleans Zephyrs 5 5 1 2 0 0 0 1 0 0 3 0 0 0 0 0 0 CF,RF 0
73 2014-06-29 AAA-PCL Nashville Sounds New Orleans Zephyrs 1 1 0 0 0 0 0 0 0 0 0 0 0 0 1 0 0 0
74 2014-06-30 AAA-PCL Nashville Sounds Memphis Redbirds 3 2 0 0 0 0 0 0 1 0 0 0 0 0 0 0 0 CF 0
75 2014-07-01 AAA-PCL Nashville Sounds Memphis Redbirds 4 3 1 1 1 0 0 0 1 0 0 0 0 0 1 0 0 LF 0
76 2014-07-03 AAA-PCL Nashville Sounds Memphis Redbirds 4 4 0 0 0 0 0 0 0 0 0 0 0 0 0 0 0 LF 0
77 2014-07-04 AAA-PCL Nashville Sounds @ Round Rock Express 4 3 0 1 0 0 0 0 1 0 2 0 0 0 0 0 0 RF 0
78 2014-07-05 AAA-PCL Nashville Sounds @ Round Rock Express 4 3 1 0 0 0 0 0 1 0 1 0 0 0 0 0 0 RF 0
79 2014-07-06 AAA-PCL Nashville Sounds @ Round Rock Express 5 5 0 0 0 0 0 0 0 0 1 0 0 0 0 0 0 CF 0
80 2014-07-07 AAA-PCL Nashville Sounds @ Memphis Redbirds 4 3 0 0 0 0 0 0 1 1 2 0 0 0 1 0 0 CF,RF 0
81 2014-07-08 AAA-PCL Nashville Sounds @ Memphis Redbirds 1 1 0 0 0 0 0 0 0 0 1 0 0 0 0 0 0 0
82 2014-07-09 AAA-PCL Nashville Sounds @ Memphis Redbirds 2 2 0 0 0 0 0 0 0 0 0 0 0 0 0 0 0 RF 0
83 2014-07-10 AAA-PCL Nashville Sounds @ Memphis Redbirds 4 3 0 0 0 0 0 0 1 0 1 0 0 0 0 0 0 LF,CF 0
84 2014-07-12 AAA-PCL Nashville Sounds Round Rock Express 4 4 1 1 0 0 1 3 0 0 0 0 0 0 0 0 0 LF 0
85 2014-07-13 AAA-PCL Nashville Sounds Round Rock Express 5 5 1 0 0 0 0 0 0 0 0 0 0 0 0 0 0 LF 0
86 2014-07-18 AAA-PCL Nashville Sounds @ Oklahoma City RedHawks 4 2 1 0 0 0 0 0 2 0 0 0 0 0 0 0 0 LF 0
87 2014-07-18 (2) AAA-PCL Nashville Sounds @ Oklahoma City RedHawks 4 4 1 2 0 0 1 2 0 0 1 0 0 0 0 0 0 RF 0
88 2014-07-21 AAA-PCL Nashville Sounds Colorado Springs Sky Sox 4 3 0 0 0 0 0 0 1 0 1 0 0 0 0 0 0 RF 0
89 2014-07-22 AAA-PCL Nashville Sounds Colorado Springs Sky Sox 4 3 0 0 0 0 0 0 1 0 0 0 0 0 0 0 0 CF,RF 0
90 2014-07-23 AAA-PCL Nashville Sounds Colorado Springs Sky Sox 4 4 1 3 2 0 0 1 0 0 1 0 0 0 0 0 0 RF 0
91 2014-07-24 AAA-PCL Nashville Sounds Colorado Springs Sky Sox 4 3 0 1 0 0 0 3 1 0 1 0 0 0 0 0 0 RF 0
92 2014-07-25 AAA-PCL Nashville Sounds Oklahoma City RedHawks 3 2 1 0 0 0 0 0 1 0 2 0 0 0 0 0 0 RF 0
93 2014-07-26 AAA-PCL Nashville Sounds Oklahoma City RedHawks 4 3 1 0 0 0 0 0 0 0 2 1 0 0 0 0 0 RF 0
94 2014-07-27 AAA-PCL Nashville Sounds Oklahoma City RedHawks 4 4 0 0 0 0 0 0 0 0 1 0 0 0 0 0 0 RF 0
95 2014-07-28 AAA-PCL Nashville Sounds Oklahoma City RedHawks 4 3 0 0 0 0 0 1 1 0 1 0 0 0 0 0 0 RF 0
96 2014-07-30 AAA-PCL Nashville Sounds @ Colorado Springs Sky Sox 1 1 0 1 0 0 0 0 0 0 0 0 0 0 0 0 0 0
97 2014-07-31 AAA-PCL Nashville Sounds @ Colorado Springs Sky Sox 3 3 0 0 0 0 0 0 0 0 2 0 0 0 0 0 0 RF,CF 0
98 2014-08-01 (2) AAA-PCL Nashville Sounds @ Colorado Springs Sky Sox 3 3 0 1 0 0 0 0 0 0 1 0 0 0 1 0 0 RF 0
99 2014-08-02 AAA-PCL Nashville Sounds @ New Orleans Zephyrs 4 2 0 0 0 0 0 0 2 0 0 0 0 0 1 1 0 RF 0
100 2014-08-03 AAA-PCL Nashville Sounds @ New Orleans Zephyrs 5 5 0 1 1 0 0 0 0 0 1 0 0 0 0 0 0 RF 0
101 2014-08-05 AAA-PCL Nashville Sounds @ New Orleans Zephyrs 4 4 0 0 0 0 0 0 0 0 2 0 0 0 0 0 0 LF 0
102 2014-08-10 (2) AAA-PCL Nashville Sounds Round Rock Express 3 3 0 1 1 0 0 0 0 0 1 0 0 0 0 0 0 RF 0
103 2014-08-12 AAA-PCL Nashville Sounds @ El Paso Chihuahuas 1 0 0 0 0 0 0 0 1 0 0 0 0 0 0 0 0 0
104 2014-08-13 AAA-PCL Nashville Sounds @ El Paso Chihuahuas 1 1 0 0 0 0 0 0 0 0 0 0 0 0 0 0 0 RF 0
105 2014-08-15 AAA-PCL Nashville Sounds @ El Paso Chihuahuas 4 4 0 0 0 0 0 0 0 0 1 0 0 0 1 0 0 CF 0
106 2014-08-17 AAA-PCL Nashville Sounds @ Albuquerque Isotopes 2 2 0 0 0 0 0 0 0 0 2 0 0 0 0 0 0 LF 0
107 2014-08-19 AAA-PCL Nashville Sounds @ Albuquerque Isotopes 2 1 0 0 0 0 0 0 0 0 0 0 1 0 0 0 0 LF 0
108 2014-08-21 (2) AAA-PCL Nashville Sounds Fresno Grizzlies 3 1 1 1 0 0 0 0 2 0 0 0 0 0 0 0 0 CF 0
109 2014-08-22 AAA-PCL Nashville Sounds Fresno Grizzlies 1 1 0 1 0 0 0 0 0 0 0 0 0 0 0 0 0 RF 0
110 2014-08-25 AAA-PCL Nashville Sounds Sacramento River Cats 4 4 0 1 0 0 0 0 0 0 0 0 0 0 0 0 0 CF 0
111 2014-08-26 AAA-PCL Nashville Sounds Sacramento River Cats 1 1 0 0 0 0 0 0 0 0 0 0 0 0 0 0 0 0
112 2014-08-27 AAA-PCL Nashville Sounds Sacramento River Cats 1 1 0 0 0 0 0 0 0 0 1 0 0 0 0 0 0 0
113 2014-08-28 AAA-PCL Nashville Sounds @ Round Rock Express 1 1 0 0 0 0 0 0 0 0 1 0 0 0 0 0 0 0
114 2014-08-30 AAA-PCL Nashville Sounds @ Round Rock Express 4 3 0 0 0 0 0 0 1 0 1 0 0 0 0 0 0 RF 0
115 2014-08-30 (2) AAA-PCL Nashville Sounds @ Round Rock Express 3 3 0 0 0 0 0 0 0 0 1 0 0 0 0 0 0 CF 0
116 2014-08-31 AAA-PCL Nashville Sounds @ Round Rock Express 4 4 0 1 1 0 0 0 0 0 2 0 0 0 0 0 0 CF 0
117 2014-09-01 AAA-PCL Nashville Sounds @ Round Rock Express 5 3 1 0 0 0 0 2 0 0 1 1 0 1 0 0 0 CF 0

2014 Player Batting Splits

Split G PA AB R H 2B 3B HR RBI SB CS BB SO BA OBP SLG OPS TB GDP HBP SH SF IBB
Total 117 429 379 40 84 20 1 8 32 2 2 46 93 .222 .308 .343 .651 130 8 2 1 1 3
Last 7 days 1 5 3 1 0 0 0 0 2 0 0 0 1 .000 .200 .000 .200 0 0 1 0 1 0
Last 28 days 8 23 20 1 2 1 0 0 2 0 0 1 7 .100 .174 .150 .324 3 0 1 0 1 0
Last 90 days 49 161 137 12 23 7 1 2 14 1 1 20 39 .168 .281 .277 .559 38 6 2 1 1 1
Home 61 225 196 24 47 13 0 4 18 0 1 28 39 .240 .338 .367 .705 72 3 1 0 0 1
Away 56 204 183 16 37 7 1 4 14 2 1 18 54 .202 .276 .317 .593 58 5 1 1 1 2
vs RHP as LHB 110 307 271 67 17 1 8 22 35 59 .247 .333 .406 .739 110 6 0 1 0 3
vs LHP as LHB 58 122 108 17 3 0 0 10 11 34 .157 .246 .185 .431 20 2 2 0 1 0
April 24 100 90 13 25 7 0 2 6 0 0 10 22 .278 .350 .422 .772 38 0 0 0 0 1
May 25 91 80 8 19 3 0 2 6 1 1 11 17 .238 .330 .350 .680 28 0 0 0 0 1
June 25 98 91 8 23 4 1 2 8 0 1 7 19 .253 .306 .385 .691 35 3 0 0 0 0
July 23 84 71 9 10 3 0 2 10 0 0 12 20 .141 .274 .268 .541 19 2 1 0 0 1
August 19 51 44 1 7 3 0 0 0 1 0 6 14 .159 .260 .227 .487 10 3 0 1 0 0
September 1 5 3 1 0 0 0 0 2 0 0 0 1 .000 .200 .000 .200 0 0 1 0 1 0
2 outs, RISP 48 62 46 6 2 0 0 10 16 12 .130 .355 .174 .529 8 0 0 0 0 3
vs. Younger Pitchers 68 168 149 28 5 0 3 11 18 34 .188 .274 .282 .556 42 2 0 0 1 1
vs. Older Pitchers 104 261 230 56 15 1 5 21 28 59 .243 .331 .383 .713 88 6 2 1 0 2
Please note that splits include both major and minor league stats. We have decided that the splits across all levels is more useful than just minor league stats.

About the Minor League Data

Performance data on minor and international leagues is licensed from and provided by the SABR Minor Leagues Database, a community project sponsored by the Minor Leagues Committee of the Society for American Baseball Research.

The database is under active development. Many statistics are incomplete due to ongoing research and/or limitations in published sources. To learn more about these limitations, or to find out how to contribute, click here.

Minor league Total Zone (Rctch&Rtz, 2005-2009) data provided by Baseballprojection.com and Minorleaguesplits.com.